Latest Weather Observations for Cape Bruny AWS

IDT60801

Issued at 9:21 am EST Sunday 16 June 2019 (issued every 10 minutes, with the page automatically refreshed every 10 minutes)

About weather observations | Map of weather stations | Latest weather observations for TAS | Other Formats
Station Details ID: 094198 Name: CAPE BRUNY (CAPE BRUNY) Lat: -43.49 Lon: 147.14 Height: 59.7 m
Data from the previous 72 hours. | See also: Recent months at Cape Bruny AWS
Date/Time
EST
Temp
°C
App
Temp
°C
Dew
Point
°C
Rel
Hum
%
Delta-T
°C
Wind Press
QNH
hPa
Press
MSL
hPa
Rain since
9am
mm
Dir  Spd
km/h
Gust
km/h
Spd
kts
Gust
kts
16/09:00am 7.1 2.9 5.9 92 0.5 N 17 20 9 11 1021.0 1021.1 0.2
16/08:30am 6.1 1.4 5.1 93 0.4 N 19 20 10 11 1020.9 1021.0 0.2
16/08:00am 5.7 0.7 4.7 93 0.4 N 20 20 11 11 1020.6 1020.7 0.2
16/07:30am 5.8 0.8 4.6 92 0.5 N 20 22 11 12 1020.4 1020.5 0.2
16/07:00am 5.8 1.0 4.6 92 0.5 N 19 22 10 12 1020.4 1020.5 0.2
16/06:30am 5.9 1.1 4.7 92 0.5 N 19 20 10 11 1020.2 1020.2 0.2
16/06:00am 5.6 1.1 4.4 92 0.5 N 17 19 9 10 1020.2 1020.2 0.2
16/05:30am 5.8 1.0 4.4 91 0.6 N 19 20 10 11 1019.9 1019.9 0.2
16/05:00am 6.0 1.6 4.6 91 0.6 N 17 20 9 11 1019.8 1019.8 0.2
16/04:30am 5.9 1.1 4.4 90 0.6 N 19 20 10 11 1019.7 1019.7 0.2
16/04:00am 6.0 1.5 4.2 88 0.8 N 17 20 9 11 1019.7 1019.7 0.2
16/03:30am 6.2 1.4 4.5 89 0.7 N 19 20 10 11 1019.8 1019.8 0.2
16/03:00am 6.4 1.6 4.9 90 0.7 N 19 20 10 11 1019.9 1019.9 0.2
16/02:30am 6.0 1.4 3.8 86 0.9 N 17 20 9 11 1020.0 1020.0 0.2
16/02:00am 6.5 1.9 3.8 83 1.1 N 17 19 9 10 1020.1 1020.1 0.2
16/01:30am 6.4 2.0 2.5 76 1.6 N 15 19 8 10 1020.0 1020.0 0.2
16/01:00am 7.7 2.6 3.0 72 2.0 NW 19 24 10 13 1019.7 1019.7 0.2
16/12:30am 7.0 1.7 2.9 75 1.7 NNW 20 24 11 13 1019.7 1019.7 0.2
16/12:00am 6.0 1.6 2.8 80 1.3 N 15 17 8 9 1020.0 1020.0 0.2
 
Date/Time
EST
Temp
°C
App
Temp
°C
Dew
Point
°C
Rel
Hum
%
Delta-T
°C
Wind Press
QNH
hPa
Press
MSL
hPa
Rain since
9am
mm
Dir  Spd
km/h
Gust
km/h
Spd
kts
Gust
kts
15/11:30pm 6.9 1.9 3.5 79 1.4 NNW 19 20 10 11 1020.2 1020.2 0.2
15/11:00pm 7.0 2.8 3.6 79 1.4 N 15 17 8 9 1020.1 1020.1 0.2
15/10:30pm 7.6 3.9 4.4 80 1.4 NNW 13 15 7 8 1020.1 1020.1 0.2
15/10:00pm 8.1 4.4 4.3 77 1.7 NNW 13 17 7 9 1020.1 1020.1 0.2
15/09:30pm 8.1 3.5 3.9 75 1.8 NNW 17 20 9 11 1020.1 1020.1 0.2
15/09:00pm 7.3 3.4 3.5 77 1.6 NNW 13 17 7 9 1019.9 1019.9 0.2
15/08:30pm 8.4 3.3 4.0 74 1.9 NW 20 26 11 14 1019.8 1019.8 0.2
15/08:00pm 8.6 3.7 4.0 73 2.0 WNW 19 24 10 13 1019.7 1019.7 0.2
15/07:30pm 8.9 3.9 4.5 74 1.9 WNW 20 26 11 14 1019.7 1019.7 0.2
15/07:00pm 9.0 4.6 4.6 74 1.9 NW 17 20 9 11 1019.5 1019.5 0.2
15/06:30pm 9.3 4.3 4.5 72 2.1 NW 20 28 11 15 1019.3 1019.3 0.2
15/06:00pm 9.4 4.5 5.0 74 2.0 WNW 20 26 11 14 1018.9 1019.0 0.2
15/05:30pm 9.1 4.7 4.5 73 2.0 NW 17 20 9 11 1018.6 1018.7 0.2
15/05:00pm 8.8 5.1 4.4 74 1.9 NW 13 20 7 11 1018.4 1018.5 0.2
15/04:30pm 9.6 6.4 5.0 73 2.1 W 11 15 6 8 1018.1 1018.2 0.2
15/04:00pm 9.7 5.7 5.1 73 2.1 W 15 22 8 12 1017.8 1017.9 0.0
15/03:30pm 9.7 6.1 4.9 72 2.2 W 13 17 7 9 1017.5 1017.6 0.0
15/03:00pm 10.4 6.4 5.0 69 2.4 WSW 15 22 8 12 1017.3 1017.4 0.0
15/02:30pm 10.9 6.8 4.6 65 2.8 W 15 24 8 13 1017.0 1017.1 0.0
15/02:00pm 10.8 7.9 4.5 65 2.8 W 9 13 5 7 1016.9 1017.0 0.0
15/01:30pm 11.3 8.0 4.3 62 3.2 WSW 11 17 6 9 1016.9 1017.0 0.0
15/01:00pm 10.6 7.7 4.5 66 2.7 WSW 9 11 5 6 1017.0 1017.1 0.0
15/12:30pm 10.7 7.0 4.4 65 2.8 WNW 13 19 7 10 1017.1 1017.2 0.0
15/12:00pm 12.0 7.6 5.0 62 3.2 WNW 17 20 9 11 1017.2 1017.3 0.0
15/11:30am 11.1 6.1 4.6 64 2.9 WNW 20 26 11 14 1017.3 1017.4 0.0
15/11:00am 10.6 5.6 4.7 67 2.7 WNW 20 28 11 15 1017.4 1017.5 0.0
15/10:30am 10.3 4.9 4.7 68 2.5 WNW 22 28 12 15 1017.5 1017.6 0.0
15/10:00am 9.7 4.8 4.3 69 2.4 WNW 19 24 10 13 1017.3 1017.4 0.0
15/09:30am 9.2 4.7 4.2 71 2.2 W 17 22 9 12 1017.1 1017.2 0.0
15/09:00am 8.8 3.7 4.2 73 2.0 WNW 20 28 11 15 1017.0 1017.1 0.2
15/08:30am 8.6 4.8 4.0 73 2.0 NW 13 20 7 11 1016.6 1016.7 0.2
15/08:00am 8.1 4.0 4.1 76 1.7 WNW 15 19 8 10 1016.1 1016.2 0.2
15/07:30am 8.4 3.4 3.8 73 2.0 WNW 19 24 10 13 1015.8 1015.9 0.2
15/07:00am 8.1 2.9 3.8 74 1.9 WNW 20 30 11 16 1015.3 1015.4 0.2
15/06:30am 8.5 3.5 3.8 72 2.0 WNW 19 26 10 14 1014.9 1015.0 0.2
15/06:00am 8.6 3.6 3.8 72 2.1 WNW 19 28 10 15 1014.5 1014.6 0.2
15/05:30am 8.4 3.2 3.8 73 2.0 NW 20 26 11 14 1013.9 1014.0 0.2
15/05:00am 8.6 2.6 3.4 70 2.2 WNW 24 33 13 18 1013.6 1013.7 0.2
15/04:30am 8.9 4.6 3.5 69 2.3 WNW 15 22 8 12 1013.3 1013.4 0.2
15/04:00am 9.2 2.9 3.8 69 2.4 W 26 33 14 18 1012.9 1013.0 0.2
15/03:30am 9.1 1.1 3.9 70 2.3 WSW 35 46 19 25 1012.7 1012.8 0.2
15/03:00am 9.9 2.1 3.0 62 3.0 WSW 33 44 18 24 1012.4 1012.5 0.2
15/02:30am 9.8 1.7 3.3 64 2.8 W 35 46 19 25 1012.0 1012.1 0.2
15/02:19am 9.6 2.5 3.4 65 2.7 W 30 54 16 29 1011.9 1012.0 0.2
15/02:00am 9.4 2.0 4.0 69 2.4 W 32 44 17 24 1012.0 1012.1 0.2
15/01:47am 9.6 1.5 3.4 65 2.7 W 35 54 19 29 1011.8 1011.9 0.2
15/01:30am 10.0 1.3 4.2 67 2.6 W 39 50 21 27 1011.4 1011.5 0.2
15/01:00am 9.4 0.8 4.8 73 2.1 W 39 52 21 28 1010.9 1011.0 0.2
15/12:48am 9.4 0.3 4.2 70 2.3 W 41 59 22 32 1010.8 1010.9 0.2
15/12:30am 9.8 0.5 4.8 71 2.2 W 43 56 23 30 1010.6 1010.7 0.2
15/12:09am 9.5 2.8 5.5 76 1.8 W 30 48 16 26 1010.7 1010.8 0.2
15/12:00am 9.4 1.7 5.4 76 1.8 WSW 35 44 19 24 1010.7 1010.8 0.2
 
Date/Time
EST
Temp
°C
App
Temp
°C
Dew
Point
°C
Rel
Hum
%
Delta-T
°C
Wind Press
QNH
hPa
Press
MSL
hPa
Rain since
9am
mm
Dir  Spd
km/h
Gust
km/h
Spd
kts
Gust
kts
14/11:30pm 9.9 1.8 5.3 73 2.1 W 37 52 20 28 1010.3 1010.4 0.2
14/11:00pm 10.1 2.1 5.5 73 2.1 W 37 50 20 27 1010.2 1010.3 0.2
14/10:33pm 9.3 -0.4 5.7 78 1.6 WSW 46 65 25 35 1010.1 1010.2 0.2
14/10:30pm 9.3 -1.2 5.7 78 1.6 WSW 50 65 27 35 1010.1 1010.2 0.2
14/10:14pm 9.7 0.7 6.2 79 1.6 WSW 43 61 23 33 1009.9 1010.0 0.2
14/10:00pm 10.3 1.7 6.3 76 1.9 W 41 56 22 30 1009.7 1009.8 0.2
14/09:30pm 9.6 0.5 6.0 78 1.7 WSW 43 54 23 29 1009.5 1009.6 0.2
14/09:00pm 9.7 2.3 6.8 82 1.4 WSW 35 44 19 24 1009.3 1009.4 0.2
14/08:30pm 9.6 1.9 6.9 83 1.3 W 37 48 20 26 1008.9 1009.0 0.2
14/08:17pm 9.6 1.1 7.0 84 1.2 WSW 41 59 22 32 1008.8 1008.9 0.2
14/08:00pm 9.9 4.3 7.0 82 1.4 WSW 26 43 14 23 1008.7 1008.8 0.2
14/07:30pm 10.0 6.0 6.5 79 1.6 WSW 17 33 9 18 1008.3 1008.4 0.2
14/07:00pm 10.9 3.4 6.1 72 2.2 WNW 35 43 19 23 1007.6 1007.7 0.0
14/06:30pm 11.0 4.1 6.4 73 2.2 WNW 32 41 17 22 1007.3 1007.4 0.0
14/06:10pm 11.2 4.9 5.5 68 2.6 WNW 28 46 15 25 1006.9 1007.0 0.0
14/06:00pm 11.4 6.7 5.3 66 2.8 NNW 19 37 10 20 1006.8 1006.9 0.0
14/05:30pm 11.1 6.4 5.2 67 2.7 NNW 19 24 10 13 1006.3 1006.3 0.0
14/05:00pm 10.6 5.9 5.2 69 2.5 NNW 19 24 10 13 1006.0 1006.0 0.0
14/04:30pm 11.0 5.7 5.1 67 2.7 NW 22 39 12 21 1006.0 1006.0 0.0
14/04:00pm 11.3 5.9 4.7 64 3.0 NW 22 32 12 17 1005.9 1005.9 0.0
14/03:30pm 11.2 4.7 4.9 65 2.9 NW 28 37 15 20 1005.7 1005.7 0.0
14/03:00pm 10.6 5.8 5.6 71 2.3 NNW 20 30 11 16 1005.9 1005.9 0.0
14/02:30pm 10.6 5.5 6.0 73 2.1 N 22 33 12 18 1005.8 1005.8 0.0
14/02:00pm 11.0 6.5 6.0 71 2.3 NNW 19 26 10 14 1006.3 1006.3 0.0
14/01:30pm 11.1 6.6 6.0 71 2.4 NNW 19 24 10 13 1006.2 1006.2 0.0
14/01:00pm 10.6 6.1 6.2 74 2.1 NNW 19 30 10 16 1006.2 1006.2 0.0
14/12:30pm 11.2 6.6 5.5 68 2.6 NNW 19 28 10 15 1006.4 1006.5 0.0
14/12:00pm 11.7 6.8 5.3 65 3.0 NNW 20 28 11 15 1006.5 1006.6 0.0
14/11:30am 11.8 7.8 4.8 62 3.2 NW 15 22 8 12 1006.8 1006.9 0.0
14/11:00am 12.0 7.3 5.2 63 3.2 NW 19 32 10 17 1007.3 1007.4 0.0
14/10:30am 11.2 5.6 5.3 67 2.7 NW 24 32 13 17 1007.6 1007.7 0.0
14/10:00am 10.9 5.3 5.2 68 2.6 NW 24 32 13 17 1007.8 1007.9 0.0
14/09:30am 11.5 6.5 4.5 62 3.2 NW 20 30 11 16 1007.7 1007.8 0.0
14/09:00am 10.2 4.9 5.2 71 2.3 NW 22 32 12 17 1007.7 1007.8 0.4
14/08:30am 9.7 4.5 5.3 74 2.0 NNW 22 32 12 17 1007.6 1007.7 0.4
14/08:00am 9.6 4.3 5.0 73 2.1 NW 22 32 12 17 1007.5 1007.6 0.4
14/07:30am 9.8 5.0 4.4 69 2.4 NNW 19 26 10 14 1007.4 1007.5 0.4
14/07:00am 9.9 5.4 4.3 68 2.5 NNW 17 22 9 12 1007.2 1007.3 0.4
14/06:30am 10.0 4.8 3.7 65 2.8 NNW 20 26 11 14 1007.1 1007.2 0.4
14/06:00am 10.0 4.9 3.3 63 2.9 N 19 26 10 14 1007.0 1007.1 0.4
14/05:30am 9.6 6.3 2.7 62 2.9 N 9 17 5 9 1006.8 1006.9 0.4
14/05:00am 10.2 4.9 2.8 60 3.2 WNW 20 30 11 16 1006.9 1007.0 0.4
14/04:48am 10.2 3.4 3.0 61 3.1 WNW 28 50 15 27 1006.5 1006.6 0.4
14/04:30am 10.0 2.4 2.8 61 3.1 NW 32 44 17 24 1006.5 1006.6 0.4
14/04:00am 10.2 2.0 2.6 59 3.3 NW 35 48 19 26 1006.4 1006.5 0.4
14/03:30am 9.6 0.6 2.5 61 3.0 NW 39 50 21 27 1006.4 1006.5 0.4
14/03:00am 9.7 1.2 3.0 63 2.9 NW 37 57 20 31 1006.5 1006.6 0.4
14/02:55am 9.7 1.1 2.8 62 3.0 NW 37 57 20 31 1006.6 1006.7 0.4
14/02:30am 9.7 1.7 3.9 67 2.6 WNW 35 48 19 26 1006.6 1006.7 0.4
14/02:05am 9.4 1.2 2.9 64 2.8 WNW 35 56 19 30 1006.2 1006.2 0.4
14/02:00am 9.4 0.9 2.9 64 2.8 WNW 37 50 20 27 1006.2 1006.2 0.4
14/01:30am 9.5 0.5 2.4 61 3.0 NW 39 57 21 31 1006.2 1006.2 0.4
14/01:24am 9.5 0.5 2.6 62 2.9 NW 39 57 21 31 1006.2 1006.2 0.4
14/01:00am 9.2 -0.7 3.0 65 2.7 NW 44 56 24 30 1006.0 1006.0 0.4
14/12:30am 9.5 0.9 2.8 63 2.9 WNW 37 52 20 28 1005.8 1005.8 0.4
14/12:00am 9.4 0.5 3.2 65 2.7 WNW 39 54 21 29 1006.0 1006.0 0.4
 
Date/Time
EST
Temp
°C
App
Temp
°C
Dew
Point
°C
Rel
Hum
%
Delta-T
°C
Wind Press
QNH
hPa
Press
MSL
hPa
Rain since
9am
mm
Dir  Spd
km/h
Gust
km/h
Spd
kts
Gust
kts
13/11:46pm 9.5 -0.3 3.5 66 2.6 WNW 44 63 24 34 1006.0 1006.0 0.4
13/11:30pm 9.6 -0.3 2.7 62 2.9 NW 44 61 24 33 1005.8 1005.8 0.4
13/11:00pm 9.5 0.2 3.0 64 2.8 NW 41 54 22 29 1005.8 1005.8 0.4
13/10:30pm 9.3 0.7 2.4 62 2.9 NW 37 46 20 25 1005.9 1005.9 0.4
13/10:00pm 9.4 -0.3 2.7 63 2.9 NW 43 50 23 27 1006.0 1006.0 0.4
13/09:37pm 9.7 1.9 2.8 62 3.0 NW 33 54 18 29 1005.9 1005.9 0.4
13/09:30pm 9.5 1.9 2.8 63 2.9 NW 32 43 17 23 1006.0 1006.0 0.4
13/09:00pm 10.0 2.3 2.4 59 3.3 NW 32 46 17 25 1005.8 1005.8 0.4
13/08:41pm 9.8 2.5 2.6 61 3.1 WNW 30 48 16 26 1005.6 1005.6 0.4
13/08:30pm 9.9 1.7 2.7 61 3.1 WNW 35 46 19 25 1005.4 1005.4 0.4
13/08:00pm 10.3 1.2 1.9 56 3.6 WNW 39 54 21 29 1005.0 1005.0 0.4
13/07:30pm 10.1 -0.2 2.9 61 3.1 WNW 46 61 25 33 1004.6 1004.6 0.4
13/07:00pm 10.3 0.0 2.9 60 3.2 WNW 46 65 25 35 1004.1 1004.1 0.4
13/06:30pm 9.9 1.8 3.4 64 2.8 WNW 35 56 19 30 1003.8 1003.8 0.4
13/06:02pm 9.6 2.0 4.0 68 2.5 WNW 33 57 18 31 1003.6 1003.6 0.4
13/06:00pm 9.7 2.1 4.1 68 2.5 WNW 33 48 18 26 1003.7 1003.7 0.4
13/05:31pm 9.9 -1.8 3.6 65 2.8 WNW 54 76 29 41 1002.7 1002.7 0.4
13/05:30pm 9.8 -1.8 4.0 67 2.6 WNW 54 70 29 38 1002.7 1002.7 0.4
13/05:28pm 9.5 -2.1 4.1 69 2.4 WNW 54 70 29 38 1002.7 1002.7 0.4
13/05:27pm 9.5 -2.4 4.1 69 2.4 WNW 56 76 30 41 1002.7 1002.7 0.4
13/05:20pm 9.5 -4.5 4.3 70 2.3 WNW 67 85 36 46 1002.4 1002.4 0.4
13/05:09pm 9.5 -2.5 3.9 68 2.5 WNW 56 78 30 42 1002.2 1002.2 0.4
13/05:00pm 10.2 1.0 3.7 64 2.9 WNW 41 59 22 32 1002.4 1002.4 0.4
13/04:38pm 10.2 0.2 4.1 66 2.7 WNW 46 65 25 35 1002.3 1002.3 0.4
13/04:30pm 10.4 -0.7 4.3 66 2.7 WNW 52 69 28 37 1002.1 1002.1 0.4
13/04:14pm 10.4 1.2 3.4 62 3.1 WNW 41 61 22 33 1002.4 1002.4 0.4
13/04:00pm 10.6 1.3 2.7 58 3.4 NW 41 54 22 29 1002.4 1002.4 0.4
13/03:30pm 11.1 2.4 3.9 61 3.2 WNW 39 59 21 32 1002.5 1002.5 0.4
13/03:05pm 11.4 4.2 5.1 65 2.9 WNW 32 50 17 27 1002.3 1002.3 0.4
13/03:00pm 11.1 3.7 4.1 62 3.2 WNW 32 43 17 23 1002.2 1002.2 0.4
13/02:30pm 11.3 4.8 4.7 64 3.0 WNW 28 37 15 20 1002.1 1002.1 0.4
13/02:00pm 11.9 4.9 6.2 68 2.7 WNW 32 54 17 29 1001.6 1001.7 0.4
13/01:39pm 11.2 5.2 6.9 75 2.0 WNW 28 46 15 25 1001.9 1001.9 0.4
13/01:30pm 10.5 3.0 6.3 75 2.0 WNW 35 50 19 27 1002.1 1002.1 0.4
13/01:00pm 11.0 1.0 6.0 71 2.3 NW 48 63 26 34 1001.4 1001.5 0.4
13/12:46pm 11.0 4.0 6.9 76 2.0 NW 33 54 18 29 1001.5 1001.6 0.4
13/12:30pm 12.0 7.3 6.1 67 2.8 NW 20 33 11 18 1002.0 1002.0 0.0
13/12:00pm 12.4 8.6 5.6 63 3.2 N 15 26 8 14 1001.7 1001.8 0.0
13/11:30am 12.0 7.2 5.4 64 3.1 NNE 20 32 11 17 1002.5 1002.5 0.0
13/11:00am 12.7 7.9 5.8 63 3.3 N 20 32 11 17 1002.9 1002.9 0.0
13/10:30am 10.7 5.8 5.0 68 2.6 N 20 30 11 16 1003.1 1003.1 0.0
13/10:00am 11.0 5.8 5.3 68 2.6 N 22 35 12 19 1003.7 1003.7 0.0
13/09:30am 11.0 6.7 5.3 68 2.6 N 17 26 9 14 1004.1 1004.1 0.0

Other formats

Comma delimited format used in spreadsheet applications
http://www.bom.gov.au/fwo/IDT60801/IDT60801.95967.axf

JavaScript Object Notation format (JSON) in row-major order
http://www.bom.gov.au/fwo/IDT60801/IDT60801.95967.json

Data quality

Most of these data are generated automatically and are frequently updated. Quality checks on data are not normally performed. It is possible for incorrect values to appear. Refer to information at About Latest Weather Observations and please check the disclaimer before using these data.